createdAt,value
2022-09-10T00:00:54.466Z,14.23
2022-09-10T00:03:22.402Z,15.53
2022-09-10T00:05:49.783Z,16.20
2022-09-10T00:08:18.589Z,16.00
2022-09-10T00:10:47.695Z,16.10
2022-09-10T00:13:17.283Z,16.93
2022-09-10T00:15:47.181Z,15.60
2022-09-10T00:18:15.514Z,16.67
2022-09-10T00:20:54.611Z,15.90
2022-09-10T00:23:25.170Z,20.00
2022-09-10T00:25:53.484Z,20.90
2022-09-10T00:28:21.766Z,17.07
2022-09-10T00:30:50.279Z,15.57
2022-09-10T00:33:19.173Z,17.10
2022-09-10T00:35:47.452Z,17.50
2022-09-10T00:38:15.016Z,17.13
2022-09-10T00:40:41.904Z,18.67
2022-09-10T00:43:15.274Z,17.33
2022-09-10T00:45:43.998Z,19.97
2022-09-10T00:48:22.705Z,20.17
2022-09-10T00:50:51.914Z,18.07
2022-09-10T00:53:24.898Z,16.03
2022-09-10T00:55:55.091Z,16.83
2022-09-10T00:58:23.699Z,15.33
2022-09-10T01:00:54.793Z,18.63
2022-09-10T01:03:25.446Z,16.80
2022-09-10T01:05:53.660Z,13.03
2022-09-10T01:08:20.450Z,11.20
2022-09-10T01:11:06.846Z,13.90
2022-09-10T01:14:17.979Z,12.17
2022-09-10T01:17:03.520Z,10.53
2022-09-10T01:20:07.965Z,10.23
2022-09-10T01:23:00.160Z,11.27
2022-09-10T01:25:46.143Z,11.03
2022-09-10T01:28:23.696Z,13.83
2022-09-10T01:30:56.604Z,14.27
2022-09-10T01:33:31.413Z,12.37
2022-09-10T01:36:02.263Z,14.73
2022-09-10T01:38:31.768Z,11.57
2022-09-10T01:40:59.469Z,13.57
2022-09-10T01:43:26.683Z,12.27
2022-09-10T01:46:32.181Z,13.20
2022-09-10T01:49:23.340Z,12.83
2022-09-10T01:51:58.994Z,14.67
2022-09-10T01:55:03.270Z,12.50
2022-09-10T01:57:55.434Z,13.67
2022-09-10T02:00:24.703Z,13.73
2022-09-10T02:03:16.397Z,15.20
2022-09-10T02:05:49.129Z,20.37
2022-09-10T02:08:21.022Z,17.93
2022-09-10T02:10:52.526Z,14.20
2022-09-10T02:13:20.318Z,15.50
2022-09-10T02:15:49.236Z,20.03
2022-09-10T02:18:16.174Z,18.00
2022-09-10T02:20:42.996Z,16.53
2022-09-10T02:23:12.300Z,18.10
2022-09-10T02:25:39.085Z,18.90
2022-09-10T02:28:06.459Z,19.87
2022-09-10T02:30:33.308Z,20.43
2022-09-10T02:33:00.162Z,19.83
2022-09-10T02:35:26.979Z,19.27
2022-09-10T02:37:53.788Z,21.43
2022-09-10T02:40:20.600Z,19.73
2022-09-10T02:42:47.410Z,20.00
2022-09-10T02:45:14.660Z,19.43
2022-09-10T02:47:41.915Z,19.33
2022-09-10T02:50:09.075Z,22.60
2022-09-10T02:52:36.130Z,22.17
2022-09-10T02:55:03.583Z,22.07
2022-09-10T02:57:31.022Z,23.23
2022-09-10T02:59:57.814Z,22.70
2022-09-10T03:02:24.622Z,19.87
2022-09-10T03:04:51.498Z,19.77
2022-09-10T03:07:20.219Z,22.73
2022-09-10T03:09:47.549Z,20.00
2022-09-10T03:12:16.260Z,20.80
2022-09-10T03:14:43.867Z,19.17
2022-09-10T03:17:11.037Z,19.73
2022-09-10T03:19:37.822Z,21.57
2022-09-10T03:22:04.612Z,21.90
2022-09-10T03:24:31.614Z,21.50
2022-09-10T03:26:58.486Z,24.83
2022-09-10T03:29:25.682Z,20.63
2022-09-10T03:31:52.527Z,22.23
2022-09-10T03:34:19.332Z,21.37
2022-09-10T03:36:48.823Z,20.70
2022-09-10T03:39:16.305Z,19.53
2022-09-10T03:41:43.041Z,24.70
2022-09-10T03:44:10.325Z,20.60
2022-09-10T03:46:38.109Z,20.27
2022-09-10T03:49:07.103Z,23.43
2022-09-10T03:51:34.175Z,21.80
2022-09-10T03:54:02.538Z,22.00
2022-09-10T03:56:29.364Z,21.37
2022-09-10T03:58:56.902Z,25.83
2022-09-10T04:01:24.789Z,23.63
2022-09-10T04:03:55.313Z,23.17
2022-09-10T04:06:22.533Z,24.23
2022-09-10T04:08:50.377Z,20.47
2022-09-10T04:11:17.137Z,23.33
2022-09-10T04:13:43.943Z,22.63
2022-09-10T04:16:11.939Z,22.77
2022-09-10T04:18:38.858Z,24.60
2022-09-10T04:21:05.838Z,21.63
2022-09-10T04:23:33.225Z,19.93
2022-09-10T04:26:00.114Z,21.77
2022-09-10T04:28:26.918Z,26.00
2022-09-10T04:30:53.641Z,22.17
2022-09-10T04:33:20.392Z,20.83
2022-09-10T04:35:47.117Z,22.30
2022-09-10T04:38:13.883Z,19.77
2022-09-10T04:40:41.414Z,20.53
2022-09-10T04:43:08.784Z,22.03
2022-09-10T04:45:35.592Z,18.10
2022-09-10T04:48:06.718Z,19.60
2022-09-10T04:50:33.897Z,23.17
2022-09-10T04:53:01.193Z,19.27
2022-09-10T04:55:30.016Z,19.63
2022-09-10T04:57:56.737Z,21.67
2022-09-10T05:00:23.486Z,21.93
2022-09-10T05:02:50.265Z,18.43
2022-09-10T05:05:17.036Z,19.07
2022-09-10T05:07:43.865Z,17.27
2022-09-10T05:10:10.622Z,16.83
2022-09-10T05:12:40.364Z,17.03
2022-09-10T05:15:07.842Z,22.90
2022-09-10T05:17:34.587Z,21.67
2022-09-10T05:20:03.633Z,20.13
2022-09-10T05:22:37.175Z,18.70
2022-09-10T05:25:07.436Z,21.53
2022-09-10T05:27:34.190Z,20.90
2022-09-10T05:30:02.093Z,19.17
2022-09-10T05:32:29.482Z,19.23
2022-09-10T05:34:56.242Z,19.30
2022-09-10T05:37:23.001Z,18.70
2022-09-10T05:39:49.993Z,17.57
2022-09-10T05:42:16.814Z,18.57
2022-09-10T05:44:43.744Z,20.40
2022-09-10T05:47:10.479Z,18.90
2022-09-10T05:49:37.238Z,19.53
2022-09-10T05:52:04.108Z,19.70
2022-09-10T05:54:30.836Z,21.33
2022-09-10T05:56:58.685Z,25.73
2022-09-10T05:59:25.408Z,21.37
2022-09-10T06:01:52.248Z,21.87
2022-09-10T06:04:21.052Z,20.93
2022-09-10T06:06:50.741Z,27.77
2022-09-10T06:09:19.184Z,22.77
2022-09-10T06:11:49.428Z,24.20
2022-09-10T06:14:16.197Z,24.67
2022-09-10T06:16:43.477Z,24.00
2022-09-10T06:19:10.467Z,24.60
2022-09-10T06:21:37.207Z,23.73
2022-09-10T06:24:04.238Z,21.43
2022-09-10T06:26:31.005Z,26.73
2022-09-10T06:28:57.808Z,22.37
2022-09-10T06:31:25.326Z,22.37
2022-09-10T06:33:53.092Z,22.90
2022-09-10T06:36:19.853Z,23.07
2022-09-10T06:38:46.771Z,19.77
2022-09-10T06:41:16.126Z,21.70
2022-09-10T06:43:43.266Z,22.23
2022-09-10T06:46:34.666Z,19.50
2022-09-10T06:49:03.283Z,20.23
2022-09-10T06:51:30.873Z,23.10
2022-09-10T06:53:57.961Z,20.53
2022-09-10T06:56:24.907Z,19.13
2022-09-10T06:58:51.873Z,25.90
2022-09-10T07:01:20.670Z,18.33
2022-09-10T07:03:47.780Z,18.83
2022-09-10T07:06:18.214Z,18.27
2022-09-10T07:08:45.366Z,21.37
2022-09-10T07:11:14.627Z,24.27
2022-09-10T07:13:43.065Z,18.60
2022-09-10T07:16:10.238Z,16.60
2022-09-10T07:18:37.404Z,19.03
2022-09-10T07:21:12.641Z,16.47
2022-09-10T07:23:40.974Z,22.93
2022-09-10T07:26:19.565Z,16.73
2022-09-10T07:28:46.805Z,16.03
2022-09-10T07:31:24.652Z,15.73
2022-09-10T07:33:51.557Z,14.47
2022-09-10T07:36:18.637Z,13.70
2022-09-10T07:38:45.654Z,16.90
2022-09-10T07:41:15.363Z,16.43
2022-09-10T07:43:44.010Z,13.07
2022-09-10T07:46:14.122Z,12.43
2022-09-10T07:48:41.530Z,13.33
2022-09-10T07:51:10.770Z,13.23
2022-09-10T07:53:38.609Z,17.07
2022-09-10T07:56:07.650Z,12.30
2022-09-10T07:58:36.073Z,10.67
2022-09-10T08:01:10.304Z,11.60
2022-09-10T08:03:37.127Z,11.93
2022-09-10T08:06:04.933Z,10.43
2022-09-10T08:08:33.811Z,11.30
2022-09-10T08:11:11.727Z,12.17
2022-09-10T08:13:45.055Z,14.77
2022-09-10T08:16:15.400Z,12.47
2022-09-10T08:18:43.708Z,8.13
2022-09-10T08:21:11.234Z,7.90
2022-09-10T08:23:41.394Z,7.43
2022-09-10T08:26:09.982Z,7.80
2022-09-10T08:28:37.828Z,8.40
2022-09-10T08:31:09.123Z,8.73
2022-09-10T08:33:39.306Z,13.80
2022-09-10T08:36:08.690Z,9.50
2022-09-10T08:38:38.693Z,7.20
2022-09-10T08:41:13.422Z,10.07
2022-09-10T08:43:48.405Z,6.73
2022-09-10T08:46:23.736Z,7.60
2022-09-10T08:48:57.321Z,7.50
2022-09-10T08:51:30.067Z,8.47
2022-09-10T08:54:01.750Z,8.90
2022-09-10T08:56:29.094Z,7.17
2022-09-10T08:59:24.230Z,8.77
2022-09-10T09:01:59.400Z,8.90
2022-09-10T09:04:39.785Z,6.60
2022-09-10T09:07:14.810Z,7.93
2022-09-10T09:09:42.106Z,7.57
2022-09-10T09:12:22.008Z,6.90
2022-09-10T09:14:57.434Z,8.97
2022-09-10T09:17:27.535Z,6.87
2022-09-10T09:20:09.248Z,8.80
2022-09-10T09:22:40.115Z,11.07
2022-09-10T09:25:22.444Z,6.30
2022-09-10T09:27:52.417Z,7.73
2022-09-10T09:30:23.184Z,8.43
2022-09-10T09:32:50.480Z,9.17
2022-09-10T09:35:30.234Z,11.07
2022-09-10T09:38:18.225Z,7.13
2022-09-10T09:40:54.556Z,11.20
2022-09-10T09:43:33.648Z,10.97
2022-09-10T09:46:01.707Z,7.37
2022-09-10T09:48:41.254Z,6.57
2022-09-10T09:51:21.134Z,7.77
2022-09-10T09:54:18.570Z,7.77
2022-09-10T09:56:49.851Z,6.57
2022-09-10T09:59:29.872Z,7.17
2022-09-10T10:02:10.891Z,10.70
2022-09-10T10:04:42.021Z,9.17
2022-09-10T10:07:09.514Z,6.73
2022-09-10T10:09:43.277Z,6.83
2022-09-10T10:12:20.724Z,9.10
2022-09-10T10:14:47.613Z,6.27
2022-09-10T10:17:36.719Z,7.57
2022-09-10T10:20:36.338Z,8.67
2022-09-10T10:23:38.102Z,5.33
2022-09-10T10:26:22.838Z,7.97
2022-09-10T10:28:55.766Z,7.07
2022-09-10T10:31:23.738Z,8.37
2022-09-10T10:34:07.964Z,6.30
2022-09-10T10:36:53.357Z,8.33
2022-09-10T10:39:26.689Z,6.17
2022-09-10T10:42:04.361Z,7.37
2022-09-10T10:44:43.232Z,7.10
2022-09-10T10:47:34.682Z,8.60
2022-09-10T10:50:17.182Z,9.00
2022-09-10T10:53:14.550Z,10.30
2022-09-10T10:55:47.393Z,7.13
2022-09-10T10:58:54.441Z,7.83
2022-09-10T11:01:24.818Z,7.57
2022-09-10T11:04:04.629Z,7.60
2022-09-10T11:06:39.467Z,7.27
2022-09-10T11:09:24.483Z,7.30
2022-09-10T11:12:08.898Z,11.83
2022-09-10T11:14:48.696Z,7.60
2022-09-10T11:17:22.531Z,7.77
2022-09-10T11:20:46.839Z,11.37
2022-09-10T11:23:46.598Z,10.67
2022-09-10T11:26:21.963Z,5.27
2022-09-10T11:29:36.536Z,4.57
2022-09-10T11:32:18.731Z,7.30
2022-09-10T11:35:04.627Z,8.30
2022-09-10T11:37:56.226Z,8.23
2022-09-10T11:41:09.332Z,7.40
2022-09-10T11:44:01.935Z,7.73
2022-09-10T11:46:39.303Z,6.47
2022-09-10T11:49:23.622Z,5.77
2022-09-10T11:51:51.307Z,5.20
2022-09-10T11:54:31.406Z,6.37
2022-09-10T11:57:03.532Z,5.70
2022-09-10T11:59:52.395Z,5.53
2022-09-10T12:02:40.991Z,6.87
2022-09-10T12:05:29.986Z,6.70
2022-09-10T12:08:06.664Z,7.07
2022-09-10T12:10:36.491Z,6.63
2022-09-10T12:13:09.385Z,7.80
2022-09-10T12:15:37.856Z,7.53
2022-09-10T12:18:18.500Z,9.00
2022-09-10T12:21:04.025Z,10.13
2022-09-10T12:23:35.516Z,8.63
2022-09-10T12:26:17.368Z,10.33
2022-09-10T12:28:52.925Z,8.83
2022-09-10T12:31:22.122Z,8.83
2022-09-10T12:33:51.090Z,8.70
2022-09-10T12:36:26.934Z,9.43
2022-09-10T12:39:12.233Z,8.73
2022-09-10T12:41:38.905Z,9.13
2022-09-10T12:44:30.390Z,8.07
2022-09-10T12:47:15.246Z,8.13
2022-09-10T12:50:01.641Z,10.47
2022-09-10T12:52:32.050Z,9.47
2022-09-10T12:55:18.437Z,9.03
2022-09-10T12:58:15.559Z,5.27
2022-09-10T13:00:55.309Z,8.55
2022-09-10T13:03:25.565Z,4.43
2022-09-10T13:05:56.574Z,4.80
2022-09-10T13:08:38.286Z,5.75
2022-09-10T13:11:22.022Z,7.07
2022-09-10T13:13:59.445Z,5.47
2022-09-10T13:16:26.518Z,5.25
2022-09-10T13:19:13.301Z,6.27
2022-09-10T13:21:43.019Z,4.73
2022-09-10T13:24:32.393Z,5.90
2022-09-10T13:27:17.439Z,4.83
2022-09-10T13:29:48.560Z,6.57
2022-09-10T13:32:53.861Z,5.20
2022-09-10T13:35:33.230Z,6.30
2022-09-10T13:38:49.299Z,5.97
2022-09-10T13:41:31.896Z,4.63
2022-09-10T13:44:26.899Z,8.47
2022-09-10T13:46:59.749Z,7.07
2022-09-10T13:49:51.624Z,5.77
2022-09-10T13:52:24.316Z,4.87
2022-09-10T13:54:56.662Z,6.93
2022-09-10T13:57:35.464Z,9.77
2022-09-10T14:00:55.588Z,4.87
2022-09-10T14:03:31.419Z,5.70
2022-09-10T14:06:01.864Z,4.23
2022-09-10T14:08:53.259Z,5.90
2022-09-10T14:11:24.624Z,4.20
2022-09-10T14:14:00.422Z,5.13
2022-09-10T14:16:52.542Z,2.97
2022-09-10T14:19:41.980Z,5.60
2022-09-10T14:22:22.338Z,4.97
2022-09-10T14:24:53.591Z,7.47
2022-09-10T14:27:34.900Z,3.58
2022-09-10T14:30:30.980Z,10.68
2022-09-10T14:33:25.380Z,5.22
2022-09-10T14:35:53.282Z,3.22
2022-09-10T14:38:36.151Z,3.40
2022-09-10T14:41:10.988Z,4.05
2022-09-10T14:43:40.493Z,5.32
2022-09-10T14:46:10.020Z,4.18
2022-09-10T14:49:03.333Z,5.43
2022-09-10T14:51:30.971Z,3.60
2022-09-10T14:53:58.961Z,4.75
2022-09-10T14:56:28.316Z,3.03
2022-09-10T14:59:00.873Z,2.88
2022-09-10T15:01:28.544Z,2.92
2022-09-10T15:03:55.528Z,3.53
2022-09-10T15:06:26.161Z,4.05
2022-09-10T15:08:56.283Z,6.03
2022-09-10T15:11:26.086Z,3.70
2022-09-10T15:13:55.822Z,4.40
2022-09-10T15:16:25.656Z,3.78
2022-09-10T15:18:52.483Z,4.57
2022-09-10T15:21:19.908Z,2.67
2022-09-10T15:23:47.868Z,5.13
2022-09-10T15:26:15.229Z,4.13
2022-09-10T15:28:42.059Z,4.30
2022-09-10T15:31:10.437Z,2.50
2022-09-10T15:33:37.453Z,4.27
2022-09-10T15:36:04.777Z,7.73
2022-09-10T15:38:31.665Z,3.57
2022-09-10T15:41:13.227Z,4.53
2022-09-10T15:43:43.155Z,3.27
2022-09-10T15:46:12.032Z,4.80
2022-09-10T15:48:39.542Z,4.57
2022-09-10T15:51:11.245Z,3.73
2022-09-10T15:53:39.834Z,4.70
2022-09-10T15:56:08.167Z,4.87
2022-09-10T15:58:35.493Z,4.10
2022-09-10T16:01:08.262Z,5.10
2022-09-10T16:03:35.041Z,2.07
2022-09-10T16:06:04.041Z,2.63
2022-09-10T16:08:31.682Z,3.77
2022-09-10T16:10:58.542Z,3.67
2022-09-10T16:13:26.062Z,4.23
2022-09-10T16:16:03.987Z,4.67
2022-09-10T16:18:32.524Z,6.90
2022-09-10T16:21:07.017Z,4.73
2022-09-10T16:23:35.100Z,5.33
2022-09-10T16:26:02.221Z,3.90
2022-09-10T16:28:29.086Z,6.83
2022-09-10T16:30:56.534Z,26.17
2022-09-10T16:33:23.319Z,12.97
2022-09-10T16:35:50.046Z,12.87
2022-09-10T16:38:16.838Z,11.07
2022-09-10T16:40:43.632Z,5.83
2022-09-10T16:43:10.878Z,6.53
2022-09-10T16:45:37.605Z,6.33
2022-09-10T16:48:06.138Z,4.33
2022-09-10T16:50:33.714Z,10.13
2022-09-10T16:53:00.526Z,13.87
2022-09-10T16:55:27.243Z,20.93
2022-09-10T16:57:54.316Z,14.77
2022-09-10T17:00:21.222Z,19.70
2022-09-10T17:02:48.007Z,50.00
2022-09-10T17:05:14.829Z,30.20
2022-09-10T17:07:41.741Z,26.23
2022-09-10T17:10:09.005Z,27.47
2022-09-10T17:12:35.940Z,11.20
2022-09-10T17:15:02.735Z,7.67
2022-09-10T17:17:29.469Z,9.03
2022-09-10T17:19:56.649Z,7.80
2022-09-10T17:22:23.415Z,5.47
2022-09-10T17:24:50.465Z,10.63
2022-09-10T17:27:17.271Z,25.30
2022-09-10T17:29:44.014Z,37.13
2022-09-10T17:32:10.846Z,40.63
2022-09-10T17:34:37.599Z,10.93
2022-09-10T17:37:04.501Z,7.03
2022-09-10T17:39:32.525Z,14.13
2022-09-10T17:41:59.337Z,18.70
2022-09-10T17:44:26.893Z,11.73
2022-09-10T17:46:55.121Z,14.03
2022-09-10T17:49:21.991Z,13.47
2022-09-10T17:51:48.844Z,8.57
2022-09-10T17:54:15.730Z,6.17
2022-09-10T17:56:43.345Z,8.73
2022-09-10T17:59:15.346Z,7.97
2022-09-10T18:01:43.119Z,11.60
2022-09-10T18:04:15.875Z,10.30
2022-09-10T18:06:45.994Z,8.77
2022-09-10T18:09:15.212Z,5.60
2022-09-10T18:11:42.401Z,7.23
2022-09-10T18:14:15.105Z,8.53
2022-09-10T18:16:42.091Z,7.57
2022-09-10T18:19:14.253Z,8.83
2022-09-10T18:21:42.148Z,7.53
2022-09-10T18:24:17.585Z,7.57
2022-09-10T18:26:46.899Z,8.50
2022-09-10T18:29:17.664Z,6.53
2022-09-10T18:31:50.420Z,7.43
2022-09-10T18:34:23.149Z,8.03
2022-09-10T18:36:55.289Z,8.47
2022-09-10T18:39:23.307Z,8.07
2022-09-10T18:41:52.911Z,9.10
2022-09-10T18:44:22.493Z,8.50
2022-09-10T18:46:50.617Z,7.70
2022-09-10T18:49:21.455Z,6.97
2022-09-10T18:51:53.276Z,9.03
2022-09-10T18:54:23.712Z,8.13
2022-09-10T18:56:51.374Z,14.50
2022-09-10T18:59:20.472Z,14.37
2022-09-10T19:01:48.216Z,17.73
2022-09-10T19:04:18.029Z,15.67
2022-09-10T19:06:48.185Z,15.57
2022-09-10T19:09:21.022Z,9.27
2022-09-10T19:11:49.879Z,6.30
2022-09-10T19:14:26.158Z,6.77
2022-09-10T19:16:54.024Z,5.43
2022-09-10T19:19:24.153Z,4.20
2022-09-10T19:21:57.152Z,6.07
2022-09-10T19:24:44.037Z,7.20
2022-09-10T19:27:13.131Z,6.93
2022-09-10T19:29:43.177Z,5.90
2022-09-10T19:32:11.297Z,4.10
2022-09-10T19:34:38.376Z,17.07
2022-09-10T19:37:05.506Z,10.87
2022-09-10T19:39:32.415Z,11.50
2022-09-10T19:41:59.320Z,37.50
2022-09-10T19:44:27.248Z,31.17
2022-09-10T19:46:53.992Z,28.10
2022-09-10T19:49:22.228Z,27.10
2022-09-10T19:51:48.987Z,20.47
2022-09-10T19:54:16.133Z,9.87
2022-09-10T19:56:43.388Z,12.57
2022-09-10T19:59:10.791Z,8.10
2022-09-10T20:01:42.113Z,7.23
2022-09-10T20:04:11.059Z,10.47
2022-09-10T20:06:38.239Z,5.90
2022-09-10T20:09:06.821Z,10.70
2022-09-10T20:11:35.541Z,9.20
2022-09-10T20:14:21.766Z,12.37
2022-09-10T20:16:48.617Z,16.27
2022-09-10T20:19:22.016Z,39.53
2022-09-10T20:21:49.938Z,41.30
2022-09-10T20:24:16.927Z,11.43
2022-09-10T20:26:46.270Z,15.37
2022-09-10T20:29:14.945Z,10.63
2022-09-10T20:31:43.302Z,10.40
2022-09-10T20:34:17.389Z,11.30
2022-09-10T20:36:44.458Z,16.37
2022-09-10T20:39:16.997Z,10.20
2022-09-10T20:41:44.757Z,8.53
2022-09-10T20:44:14.098Z,9.27
2022-09-10T20:46:41.823Z,10.73
2022-09-10T20:49:11.726Z,8.17
2022-09-10T20:51:40.235Z,8.27
2022-09-10T20:54:10.958Z,7.30
2022-09-10T20:56:37.902Z,5.87
2022-09-10T20:59:04.708Z,6.03
2022-09-10T21:01:32.032Z,8.77
2022-09-10T21:03:59.918Z,8.13
2022-09-10T21:06:31.822Z,8.40
2022-09-10T21:08:59.355Z,8.33
2022-09-10T21:11:29.259Z,11.63
2022-09-10T21:13:58.030Z,8.40
2022-09-10T21:16:28.159Z,10.70
2022-09-10T21:18:57.492Z,9.77
2022-09-10T21:21:26.988Z,12.03
2022-09-10T21:24:02.282Z,10.77
2022-09-10T21:26:35.359Z,13.93
2022-09-10T21:29:04.386Z,11.70
2022-09-10T21:31:32.257Z,12.63
2022-09-10T21:34:02.962Z,12.07
2022-09-10T21:36:31.779Z,12.50
2022-09-10T21:39:00.668Z,11.63
2022-09-10T21:41:34.106Z,11.33
2022-09-10T21:44:02.989Z,13.07
2022-09-10T21:46:30.350Z,10.47
2022-09-10T21:48:57.280Z,12.37
2022-09-10T21:51:24.462Z,10.53
2022-09-10T21:53:56.330Z,16.43
2022-09-10T21:56:25.991Z,12.40
2022-09-10T21:58:53.721Z,10.60
2022-09-10T22:01:24.772Z,13.13
2022-09-10T22:03:54.777Z,12.60
2022-09-10T22:06:24.186Z,12.60
2022-09-10T22:08:54.402Z,12.87
2022-09-10T22:11:46.756Z,18.13
2022-09-10T22:14:17.722Z,13.87
2022-09-10T22:16:45.509Z,13.60
2022-09-10T22:19:19.894Z,11.07
2022-09-10T22:21:47.119Z,14.60
2022-09-10T22:24:14.905Z,14.20
2022-09-10T22:26:43.959Z,16.20
2022-09-10T22:29:12.428Z,16.03
2022-09-10T22:31:39.473Z,12.50
2022-09-10T22:34:17.120Z,12.33
2022-09-10T22:36:45.630Z,10.60
2022-09-10T22:39:15.851Z,11.73
2022-09-10T22:41:43.451Z,12.07
2022-09-10T22:44:10.754Z,12.53
2022-09-10T22:46:38.327Z,11.00
2022-09-10T22:49:05.721Z,11.80
2022-09-10T22:51:36.120Z,11.77
2022-09-10T22:54:04.513Z,12.80
2022-09-10T22:56:31.385Z,13.77
2022-09-10T22:58:59.843Z,9.63
2022-09-10T23:01:29.580Z,9.00
2022-09-10T23:03:57.596Z,12.83
2022-09-10T23:06:25.540Z,13.37
2022-09-10T23:08:54.513Z,10.33
2022-09-10T23:11:25.219Z,12.77
2022-09-10T23:13:58.062Z,11.17
2022-09-10T23:16:34.398Z,10.93
2022-09-10T23:19:04.625Z,8.30
2022-09-10T23:21:33.152Z,9.50
2022-09-10T23:24:02.244Z,10.27
2022-09-10T23:26:29.675Z,13.17
2022-09-10T23:28:56.837Z,10.50
2022-09-10T23:31:23.567Z,10.70
2022-09-10T23:33:55.190Z,13.97
2022-09-10T23:36:22.603Z,13.40
2022-09-10T23:38:49.376Z,13.43
2022-09-10T23:41:16.269Z,12.60
2022-09-10T23:43:43.758Z,14.33
2022-09-10T23:46:11.562Z,15.80
2022-09-10T23:48:38.713Z,14.43
2022-09-10T23:51:11.230Z,11.53
2022-09-10T23:53:38.220Z,11.80
2022-09-10T23:56:05.288Z,12.73
2022-09-10T23:58:32.370Z,9.97
